METAR AND TAF INFORMATION
METAR FOR PAOH
ADDS - METARS form results

(2330 UTC 20 March 2019)
Data provider http://aviationweather.gov/metar/data/
 
METAR text: PAOH 202256Z AUTO 08011KT 10SM OVC090 12/01 A2990 RMK AO2 SLP126 T01170006
Conditions at: PAOH (HOONAH , AK, US) observed 2256 UTC 20 March 2019
Temperature: 11.7°C (53°F)
Dewpoint: 0.6°C (33°F) [RH = 46%]
Pressure (altimeter): 29.90 inches Hg (1012.6 mb)
[Sea-level pressure: 1012.6 mb]
Winds: from the E (80 degrees) at 13 MPH (11 knots; 5.7 m/s)
Visibility: 10 or more miles (16+ km)
Ceiling: 9000 feet AGL
Clouds: overcast cloud deck at 9000 feet AGL
Weather: automated observation with no human augmentation;
there may or may not be significant weather present at this time

 AIRPORT MAP

 RUNWAY INFORMATION
Runway 06 Runway length 2997 ft Runway width 75 ft
Runway elevation 15 ft Runway displaced threshold 0 ft Runway heading 78
Runway 24 Runway length 2997 ft Runway width 75 ft
Runway elevation 19 ft Runway displaced threshold 0 ft Runway heading 258

 AIRPORT FREQUENCIES

 AIRPORT NEAR NAVIGATION AIDS
Type VORTAC Name Sisters Island Frequency 114000 KHZ



Powered by Virtual Airlines Manager [v2.6.2]